sensor_id;sensor_type;location;lat;lon;timestamp;P1;durP1;ratioP1;P2;durP2;ratioP2
2888;SDS011;1453;42.708;23.282;2024-03-08T00:00:07;3.95;;;3.55;;
2888;SDS011;1453;42.708;23.282;2024-03-08T00:02:41;3.80;;;3.05;;
2888;SDS011;1453;42.708;23.282;2024-03-08T00:05:08;5.03;;;3.20;;
2888;SDS011;1453;42.708;23.282;2024-03-08T00:07:34;4.03;;;3.10;;
2888;SDS011;1453;42.708;23.282;2024-03-08T00:10:02;4.65;;;3.10;;
2888;SDS011;1453;42.708;23.282;2024-03-08T00:12:29;4.07;;;3.00;;
2888;SDS011;1453;42.708;23.282;2024-03-08T00:14:55;2.85;;;2.45;;
2888;SDS011;1453;42.708;23.282;2024-03-08T00:17:21;3.47;;;2.60;;
2888;SDS011;1453;42.708;23.282;2024-03-08T00:19:50;2.47;;;2.25;;
2888;SDS011;1453;42.708;23.282;2024-03-08T00:22:16;2.90;;;2.60;;
2888;SDS011;1453;42.708;23.282;2024-03-08T00:24:42;3.75;;;3.08;;
2888;SDS011;1453;42.708;23.282;2024-03-08T00:27:09;3.20;;;2.25;;
2888;SDS011;1453;42.708;23.282;2024-03-08T00:29:36;2.30;;;2.10;;
2888;SDS011;1453;42.708;23.282;2024-03-08T00:32:05;2.47;;;2.22;;
2888;SDS011;1453;42.708;23.282;2024-03-08T00:34:34;4.05;;;2.30;;
2888;SDS011;1453;42.708;23.282;2024-03-08T00:37:02;2.50;;;1.95;;
2888;SDS011;1453;42.708;23.282;2024-03-08T00:39:29;4.22;;;3.08;;
2888;SDS011;1453;42.708;23.282;2024-03-08T00:41:55;5.33;;;3.77;;
2888;SDS011;1453;42.708;23.282;2024-03-08T00:44:20;3.50;;;2.63;;
2888;SDS011;1453;42.708;23.282;2024-03-08T00:46:46;3.80;;;2.70;;
2888;SDS011;1453;42.708;23.282;2024-03-08T00:49:12;3.73;;;2.70;;
2888;SDS011;1453;42.708;23.282;2024-03-08T00:51:38;2.30;;;2.10;;
2888;SDS011;1453;42.708;23.282;2024-03-08T00:54:04;3.97;;;3.30;;
2888;SDS011;1453;42.708;23.282;2024-03-08T00:56:30;14.43;;;7.90;;
2888;SDS011;1453;42.708;23.282;2024-03-08T00:58:56;3.77;;;2.97;;
2888;SDS011;1453;42.708;23.282;2024-03-08T01:01:22;26.73;;;16.47;;
2888;SDS011;1453;42.708;23.282;2024-03-08T01:03:49;17.05;;;10.32;;
2888;SDS011;1453;42.708;23.282;2024-03-08T01:06:15;5.93;;;4.50;;
2888;SDS011;1453;42.708;23.282;2024-03-08T01:08:41;29.30;;;14.50;;
2888;SDS011;1453;42.708;23.282;2024-03-08T01:11:08;12.23;;;7.95;;
2888;SDS011;1453;42.708;23.282;2024-03-08T01:13:34;16.77;;;10.88;;
2888;SDS011;1453;42.708;23.282;2024-03-08T01:16:01;3.83;;;3.42;;
2888;SDS011;1453;42.708;23.282;2024-03-08T01:18:28;3.50;;;2.80;;
2888;SDS011;1453;42.708;23.282;2024-03-08T01:20:55;4.55;;;2.40;;
2888;SDS011;1453;42.708;23.282;2024-03-08T01:23:20;3.67;;;3.13;;
2888;SDS011;1453;42.708;23.282;2024-03-08T01:25:46;3.90;;;2.60;;
2888;SDS011;1453;42.708;23.282;2024-03-08T01:28:21;3.00;;;2.65;;
2888;SDS011;1453;42.708;23.282;2024-03-08T01:30:51;3.20;;;2.65;;
2888;SDS011;1453;42.708;23.282;2024-03-08T01:33:24;3.90;;;3.03;;
2888;SDS011;1453;42.708;23.282;2024-03-08T01:35:54;4.70;;;3.60;;
2888;SDS011;1453;42.708;23.282;2024-03-08T01:38:20;3.17;;;2.88;;
2888;SDS011;1453;42.708;23.282;2024-03-08T01:40:46;3.00;;;2.70;;
2888;SDS011;1453;42.708;23.282;2024-03-08T01:43:19;3.42;;;2.65;;
2888;SDS011;1453;42.708;23.282;2024-03-08T01:45:55;4.32;;;3.13;;
2888;SDS011;1453;42.708;23.282;2024-03-08T01:48:27;3.90;;;2.95;;
2888;SDS011;1453;42.708;23.282;2024-03-08T01:50:54;3.22;;;2.90;;
2888;SDS011;1453;42.708;23.282;2024-03-08T01:53:22;3.28;;;2.97;;
2888;SDS011;1453;42.708;23.282;2024-03-08T01:55:50;2.83;;;2.60;;
2888;SDS011;1453;42.708;23.282;2024-03-08T01:58:22;2.63;;;2.42;;
2888;SDS011;1453;42.708;23.282;2024-03-08T02:00:49;4.55;;;2.65;;
2888;SDS011;1453;42.708;23.282;2024-03-08T02:03:24;3.30;;;3.00;;
2888;SDS011;1453;42.708;23.282;2024-03-08T02:05:50;3.83;;;3.27;;
2888;SDS011;1453;42.708;23.282;2024-03-08T02:08:17;3.30;;;3.00;;
2888;SDS011;1453;42.708;23.282;2024-03-08T02:10:44;3.95;;;2.97;;
2888;SDS011;1453;42.708;23.282;2024-03-08T02:13:10;3.75;;;3.45;;
2888;SDS011;1453;42.708;23.282;2024-03-08T02:15:52;3.78;;;2.92;;
2888;SDS011;1453;42.708;23.282;2024-03-08T02:18:27;3.45;;;2.70;;
2888;SDS011;1453;42.708;23.282;2024-03-08T02:20:54;2.83;;;2.47;;
2888;SDS011;1453;42.708;23.282;2024-03-08T02:23:22;2.88;;;2.65;;
2888;SDS011;1453;42.708;23.282;2024-03-08T02:25:50;3.15;;;2.83;;
2888;SDS011;1453;42.708;23.282;2024-03-08T02:28:16;2.70;;;2.10;;
2888;SDS011;1453;42.708;23.282;2024-03-08T02:30:48;2.70;;;2.50;;
2888;SDS011;1453;42.708;23.282;2024-03-08T02:33:16;4.90;;;2.25;;
2888;SDS011;1453;42.708;23.282;2024-03-08T02:35:43;2.80;;;2.50;;
2888;SDS011;1453;42.708;23.282;2024-03-08T02:38:11;2.42;;;2.20;;
2888;SDS011;1453;42.708;23.282;2024-03-08T02:40:45;4.47;;;3.25;;
2888;SDS011;1453;42.708;23.282;2024-03-08T02:43:13;2.95;;;2.60;;
2888;SDS011;1453;42.708;23.282;2024-03-08T02:45:40;3.90;;;2.47;;
2888;SDS011;1453;42.708;23.282;2024-03-08T02:48:07;3.30;;;2.80;;
2888;SDS011;1453;42.708;23.282;2024-03-08T02:50:34;2.35;;;2.15;;
2888;SDS011;1453;42.708;23.282;2024-03-08T02:53:01;1.90;;;1.80;;
2888;SDS011;1453;42.708;23.282;2024-03-08T02:55:27;2.20;;;1.80;;
2888;SDS011;1453;42.708;23.282;2024-03-08T02:57:54;1.80;;;1.70;;
2888;SDS011;1453;42.708;23.282;2024-03-08T03:00:21;2.70;;;2.00;;
2888;SDS011;1453;42.708;23.282;2024-03-08T03:02:51;3.15;;;2.10;;
2888;SDS011;1453;42.708;23.282;2024-03-08T03:05:20;2.20;;;1.90;;
2888;SDS011;1453;42.708;23.282;2024-03-08T03:07:46;2.20;;;2.00;;
2888;SDS011;1453;42.708;23.282;2024-03-08T03:10:13;2.78;;;2.10;;
2888;SDS011;1453;42.708;23.282;2024-03-08T03:12:42;2.45;;;2.25;;
2888;SDS011;1453;42.708;23.282;2024-03-08T03:15:10;2.70;;;1.95;;
2888;SDS011;1453;42.708;23.282;2024-03-08T03:17:37;2.97;;;2.25;;
2888;SDS011;1453;42.708;23.282;2024-03-08T03:20:06;3.78;;;2.22;;
2888;SDS011;1453;42.708;23.282;2024-03-08T03:22:38;3.50;;;2.25;;
2888;SDS011;1453;42.708;23.282;2024-03-08T03:25:12;3.75;;;2.10;;
2888;SDS011;1453;42.708;23.282;2024-03-08T03:27:38;2.20;;;2.00;;
2888;SDS011;1453;42.708;23.282;2024-03-08T03:30:05;2.20;;;1.90;;
2888;SDS011;1453;42.708;23.282;2024-03-08T03:32:46;3.22;;;2.70;;
2888;SDS011;1453;42.708;23.282;2024-03-08T03:35:16;2.65;;;2.10;;
2888;SDS011;1453;42.708;23.282;2024-03-08T03:37:45;2.60;;;2.40;;
2888;SDS011;1453;42.708;23.282;2024-03-08T03:40:47;2.28;;;2.08;;
2888;SDS011;1453;42.708;23.282;2024-03-08T03:43:13;2.63;;;1.80;;
2888;SDS011;1453;42.708;23.282;2024-03-08T03:45:39;1.80;;;1.60;;
2888;SDS011;1453;42.708;23.282;2024-03-08T03:48:06;1.98;;;1.80;;
2888;SDS011;1453;42.708;23.282;2024-03-08T03:50:36;2.70;;;2.13;;
2888;SDS011;1453;42.708;23.282;2024-03-08T03:53:02;3.75;;;1.85;;
2888;SDS011;1453;42.708;23.282;2024-03-08T03:55:28;3.28;;;2.17;;
2888;SDS011;1453;42.708;23.282;2024-03-08T03:57:54;2.87;;;2.30;;
2888;SDS011;1453;42.708;23.282;2024-03-08T04:00:20;3.40;;;2.07;;
2888;SDS011;1453;42.708;23.282;2024-03-08T04:02:46;3.17;;;1.83;;
2888;SDS011;1453;42.708;23.282;2024-03-08T04:05:12;2.40;;;1.97;;
2888;SDS011;1453;42.708;23.282;2024-03-08T04:07:38;2.25;;;2.00;;
2888;SDS011;1453;42.708;23.282;2024-03-08T04:10:05;2.70;;;1.80;;
2888;SDS011;1453;42.708;23.282;2024-03-08T04:12:35;1.85;;;1.70;;
2888;SDS011;1453;42.708;23.282;2024-03-08T04:15:02;2.40;;;2.20;;
2888;SDS011;1453;42.708;23.282;2024-03-08T04:17:33;3.45;;;2.03;;
2888;SDS011;1453;42.708;23.282;2024-03-08T04:20:03;2.20;;;2.00;;
2888;SDS011;1453;42.708;23.282;2024-03-08T04:22:35;3.78;;;2.22;;
2888;SDS011;1453;42.708;23.282;2024-03-08T04:25:04;2.25;;;2.05;;
2888;SDS011;1453;42.708;23.282;2024-03-08T04:27:33;2.65;;;2.10;;
2888;SDS011;1453;42.708;23.282;2024-03-08T04:29:59;2.58;;;2.10;;
2888;SDS011;1453;42.708;23.282;2024-03-08T04:32:26;2.90;;;2.20;;
2888;SDS011;1453;42.708;23.282;2024-03-08T04:34:54;3.28;;;2.50;;
2888;SDS011;1453;42.708;23.282;2024-03-08T04:37:21;2.42;;;2.20;;
2888;SDS011;1453;42.708;23.282;2024-03-08T04:39:47;2.75;;;2.55;;
2888;SDS011;1453;42.708;23.282;2024-03-08T04:42:13;3.35;;;2.63;;
2888;SDS011;1453;42.708;23.282;2024-03-08T04:44:40;2.70;;;2.50;;
2888;SDS011;1453;42.708;23.282;2024-03-08T04:47:06;3.40;;;2.70;;
2888;SDS011;1453;42.708;23.282;2024-03-08T04:49:32;3.00;;;2.70;;
2888;SDS011;1453;42.708;23.282;2024-03-08T04:52:02;4.85;;;2.83;;
2888;SDS011;1453;42.708;23.282;2024-03-08T04:54:29;4.80;;;3.20;;
2888;SDS011;1453;42.708;23.282;2024-03-08T04:56:55;4.03;;;2.90;;
2888;SDS011;1453;42.708;23.282;2024-03-08T04:59:22;3.03;;;2.72;;
2888;SDS011;1453;42.708;23.282;2024-03-08T05:01:47;4.90;;;3.60;;
2888;SDS011;1453;42.708;23.282;2024-03-08T05:04:13;4.27;;;3.37;;
2888;SDS011;1453;42.708;23.282;2024-03-08T05:06:40;4.50;;;3.63;;
2888;SDS011;1453;42.708;23.282;2024-03-08T05:09:06;3.97;;;3.53;;
2888;SDS011;1453;42.708;23.282;2024-03-08T05:11:44;5.18;;;3.97;;
2888;SDS011;1453;42.708;23.282;2024-03-08T05:14:11;7.47;;;4.97;;
2888;SDS011;1453;42.708;23.282;2024-03-08T05:16:42;7.70;;;5.40;;
2888;SDS011;1453;42.708;23.282;2024-03-08T05:19:13;9.45;;;5.78;;
2888;SDS011;1453;42.708;23.282;2024-03-08T05:21:49;7.32;;;4.80;;
2888;SDS011;1453;42.708;23.282;2024-03-08T05:24:15;5.88;;;4.90;;
2888;SDS011;1453;42.708;23.282;2024-03-08T05:26:42;5.82;;;5.00;;
2888;SDS011;1453;42.708;23.282;2024-03-08T05:29:08;6.10;;;4.78;;
2888;SDS011;1453;42.708;23.282;2024-03-08T05:34:15;10.32;;;5.70;;
2888;SDS011;1453;42.708;23.282;2024-03-08T05:36:41;8.35;;;5.70;;
2888;SDS011;1453;42.708;23.282;2024-03-08T05:39:10;8.15;;;5.75;;
2888;SDS011;1453;42.708;23.282;2024-03-08T05:41:37;8.70;;;6.25;;
2888;SDS011;1453;42.708;23.282;2024-03-08T05:44:04;9.00;;;6.18;;
2888;SDS011;1453;42.708;23.282;2024-03-08T05:46:30;10.40;;;6.85;;
2888;SDS011;1453;42.708;23.282;2024-03-08T05:48:56;10.65;;;7.38;;
2888;SDS011;1453;42.708;23.282;2024-03-08T05:51:24;11.40;;;6.72;;
2888;SDS011;1453;42.708;23.282;2024-03-08T05:53:53;11.68;;;7.00;;
2888;SDS011;1453;42.708;23.282;2024-03-08T05:56:21;10.27;;;6.72;;
2888;SDS011;1453;42.708;23.282;2024-03-08T05:58:50;9.85;;;6.65;;
2888;SDS011;1453;42.708;23.282;2024-03-08T06:01:16;11.13;;;6.63;;
2888;SDS011;1453;42.708;23.282;2024-03-08T06:03:42;9.50;;;6.53;;
2888;SDS011;1453;42.708;23.282;2024-03-08T06:06:12;8.93;;;5.95;;
2888;SDS011;1453;42.708;23.282;2024-03-08T06:08:38;9.02;;;5.63;;
2888;SDS011;1453;42.708;23.282;2024-03-08T06:11:04;11.65;;;6.65;;
2888;SDS011;1453;42.708;23.282;2024-03-08T06:13:33;8.13;;;6.28;;
2888;SDS011;1453;42.708;23.282;2024-03-08T06:16:00;10.52;;;7.13;;
2888;SDS011;1453;42.708;23.282;2024-03-08T06:18:30;11.38;;;7.53;;
2888;SDS011;1453;42.708;23.282;2024-03-08T06:20:56;9.88;;;7.03;;
2888;SDS011;1453;42.708;23.282;2024-03-08T06:23:22;9.02;;;6.65;;
2888;SDS011;1453;42.708;23.282;2024-03-08T06:25:48;7.40;;;5.88;;
2888;SDS011;1453;42.708;23.282;2024-03-08T06:28:15;9.57;;;6.50;;
2888;SDS011;1453;42.708;23.282;2024-03-08T06:30:42;9.93;;;6.60;;
2888;SDS011;1453;42.708;23.282;2024-03-08T06:33:08;8.68;;;6.18;;
2888;SDS011;1453;42.708;23.282;2024-03-08T06:35:34;8.45;;;6.15;;
2888;SDS011;1453;42.708;23.282;2024-03-08T06:38:03;7.53;;;6.28;;
2888;SDS011;1453;42.708;23.282;2024-03-08T06:40:29;9.50;;;6.93;;
2888;SDS011;1453;42.708;23.282;2024-03-08T06:42:55;9.30;;;6.93;;
2888;SDS011;1453;42.708;23.282;2024-03-08T06:45:21;11.37;;;7.13;;
2888;SDS011;1453;42.708;23.282;2024-03-08T06:47:48;10.82;;;7.13;;
2888;SDS011;1453;42.708;23.282;2024-03-08T06:50:15;9.60;;;6.25;;
2888;SDS011;1453;42.708;23.282;2024-03-08T06:52:41;11.05;;;6.80;;
2888;SDS011;1453;42.708;23.282;2024-03-08T06:55:08;12.25;;;7.43;;
2888;SDS011;1453;42.708;23.282;2024-03-08T06:57:38;11.60;;;7.65;;
2888;SDS011;1453;42.708;23.282;2024-03-08T07:00:06;8.25;;;6.43;;
2888;SDS011;1453;42.708;23.282;2024-03-08T07:02:38;9.85;;;6.18;;
2888;SDS011;1453;42.708;23.282;2024-03-08T07:05:07;9.63;;;6.90;;
2888;SDS011;1453;42.708;23.282;2024-03-08T07:07:35;10.38;;;6.95;;
2888;SDS011;1453;42.708;23.282;2024-03-08T07:10:02;10.75;;;6.55;;
2888;SDS011;1453;42.708;23.282;2024-03-08T07:12:29;10.07;;;7.22;;
2888;SDS011;1453;42.708;23.282;2024-03-08T07:14:55;9.60;;;6.67;;
2888;SDS011;1453;42.708;23.282;2024-03-08T07:17:21;9.93;;;6.77;;
2888;SDS011;1453;42.708;23.282;2024-03-08T07:19:47;10.50;;;6.72;;
2888;SDS011;1453;42.708;23.282;2024-03-08T07:22:14;9.60;;;6.63;;
2888;SDS011;1453;42.708;23.282;2024-03-08T07:24:40;12.20;;;7.20;;
2888;SDS011;1453;42.708;23.282;2024-03-08T07:27:35;8.50;;;7.03;;
2888;SDS011;1453;42.708;23.282;2024-03-08T07:30:02;10.53;;;7.13;;
2888;SDS011;1453;42.708;23.282;2024-03-08T07:32:29;13.15;;;9.25;;
2888;SDS011;1453;42.708;23.282;2024-03-08T07:34:56;13.93;;;10.57;;
2888;SDS011;1453;42.708;23.282;2024-03-08T07:37:23;13.43;;;9.20;;
2888;SDS011;1453;42.708;23.282;2024-03-08T07:39:49;12.17;;;9.23;;
2888;SDS011;1453;42.708;23.282;2024-03-08T07:42:15;13.87;;;10.17;;
2888;SDS011;1453;42.708;23.282;2024-03-08T07:44:42;15.25;;;9.18;;
2888;SDS011;1453;42.708;23.282;2024-03-08T07:47:08;12.55;;;8.88;;
2888;SDS011;1453;42.708;23.282;2024-03-08T07:49:37;12.07;;;9.55;;
2888;SDS011;1453;42.708;23.282;2024-03-08T07:52:03;12.25;;;9.50;;
2888;SDS011;1453;42.708;23.282;2024-03-08T07:54:32;13.75;;;8.20;;
2888;SDS011;1453;42.708;23.282;2024-03-08T07:57:16;11.50;;;8.45;;
2888;SDS011;1453;42.708;23.282;2024-03-08T07:59:43;11.38;;;8.27;;
2888;SDS011;1453;42.708;23.282;2024-03-08T08:02:09;11.00;;;8.80;;
2888;SDS011;1453;42.708;23.282;2024-03-08T08:04:35;10.30;;;7.27;;
2888;SDS011;1453;42.708;23.282;2024-03-08T08:07:02;6.85;;;5.95;;
2888;SDS011;1453;42.708;23.282;2024-03-08T08:09:28;9.43;;;6.25;;
2888;SDS011;1453;42.708;23.282;2024-03-08T08:11:59;6.80;;;4.88;;
2888;SDS011;1453;42.708;23.282;2024-03-08T08:14:28;7.57;;;5.32;;
2888;SDS011;1453;42.708;23.282;2024-03-08T08:16:54;6.10;;;5.22;;
2888;SDS011;1453;42.708;23.282;2024-03-08T08:19:22;7.30;;;5.50;;
2888;SDS011;1453;42.708;23.282;2024-03-08T08:21:48;6.65;;;4.90;;
2888;SDS011;1453;42.708;23.282;2024-03-08T08:24:14;6.33;;;5.00;;
2888;SDS011;1453;42.708;23.282;2024-03-08T08:26:40;8.70;;;5.80;;
2888;SDS011;1453;42.708;23.282;2024-03-08T08:29:07;7.93;;;5.90;;
2888;SDS011;1453;42.708;23.282;2024-03-08T08:31:33;14.77;;;10.17;;
2888;SDS011;1453;42.708;23.282;2024-03-08T08:33:59;7.00;;;5.03;;
2888;SDS011;1453;42.708;23.282;2024-03-08T08:36:25;5.27;;;4.80;;
2888;SDS011;1453;42.708;23.282;2024-03-08T08:38:51;5.70;;;5.20;;
2888;SDS011;1453;42.708;23.282;2024-03-08T08:41:21;8.87;;;5.60;;
2888;SDS011;1453;42.708;23.282;2024-03-08T08:43:50;8.00;;;6.07;;
2888;SDS011;1453;42.708;23.282;2024-03-08T08:46:17;8.97;;;6.17;;
2888;SDS011;1453;42.708;23.282;2024-03-08T08:48:43;5.63;;;5.03;;
2888;SDS011;1453;42.708;23.282;2024-03-08T08:51:12;5.53;;;4.90;;
2888;SDS011;1453;42.708;23.282;2024-03-08T08:53:42;7.40;;;5.20;;
2888;SDS011;1453;42.708;23.282;2024-03-08T08:56:11;6.07;;;5.10;;
2888;SDS011;1453;42.708;23.282;2024-03-08T08:58:41;5.50;;;5.10;;
2888;SDS011;1453;42.708;23.282;2024-03-08T09:01:10;5.10;;;4.67;;
2888;SDS011;1453;42.708;23.282;2024-03-08T09:03:37;5.30;;;4.80;;
2888;SDS011;1453;42.708;23.282;2024-03-08T09:06:05;5.77;;;5.30;;
2888;SDS011;1453;42.708;23.282;2024-03-08T09:08:38;5.33;;;4.93;;
2888;SDS011;1453;42.708;23.282;2024-03-08T09:11:09;5.17;;;4.77;;
2888;SDS011;1453;42.708;23.282;2024-03-08T09:13:35;4.90;;;4.50;;
2888;SDS011;1453;42.708;23.282;2024-03-08T09:16:04;5.03;;;4.63;;
2888;SDS011;1453;42.708;23.282;2024-03-08T09:18:31;6.57;;;5.57;;
2888;SDS011;1453;42.708;23.282;2024-03-08T09:20:57;5.23;;;4.77;;
2888;SDS011;1453;42.708;23.282;2024-03-08T09:23:24;5.10;;;4.70;;
2888;SDS011;1453;42.708;23.282;2024-03-08T09:25:55;6.83;;;4.90;;
2888;SDS011;1453;42.708;23.282;2024-03-08T09:28:24;6.47;;;4.70;;
2888;SDS011;1453;42.708;23.282;2024-03-08T09:30:50;5.13;;;4.73;;
2888;SDS011;1453;42.708;23.282;2024-03-08T09:33:16;5.27;;;4.77;;
2888;SDS011;1453;42.708;23.282;2024-03-08T09:35:47;5.50;;;5.00;;
2888;SDS011;1453;42.708;23.282;2024-03-08T09:38:14;6.63;;;5.47;;
2888;SDS011;1453;42.708;23.282;2024-03-08T09:40:43;5.93;;;5.43;;
2888;SDS011;1453;42.708;23.282;2024-03-08T09:43:09;5.40;;;5.00;;
2888;SDS011;1453;42.708;23.282;2024-03-08T09:45:38;6.60;;;5.27;;
2888;SDS011;1453;42.708;23.282;2024-03-08T09:48:10;5.70;;;5.20;;
2888;SDS011;1453;42.708;23.282;2024-03-08T09:50:42;6.20;;;5.67;;
2888;SDS011;1453;42.708;23.282;2024-03-08T09:53:08;6.80;;;6.30;;
2888;SDS011;1453;42.708;23.282;2024-03-08T09:55:37;5.83;;;5.43;;
2888;SDS011;1453;42.708;23.282;2024-03-08T09:58:07;6.67;;;6.07;;
2888;SDS011;1453;42.708;23.282;2024-03-08T10:00:45;6.43;;;5.93;;
2888;SDS011;1453;42.708;23.282;2024-03-08T10:03:10;5.77;;;5.37;;
2888;SDS011;1453;42.708;23.282;2024-03-08T10:05:39;6.13;;;5.53;;
2888;SDS011;1453;42.708;23.282;2024-03-08T10:08:06;7.23;;;6.53;;
2888;SDS011;1453;42.708;23.282;2024-03-08T10:10:36;6.30;;;5.80;;
2888;SDS011;1453;42.708;23.282;2024-03-08T10:13:05;5.90;;;5.37;;
2888;SDS011;1453;42.708;23.282;2024-03-08T10:15:32;5.53;;;5.03;;
2888;SDS011;1453;42.708;23.282;2024-03-08T10:17:58;5.53;;;5.13;;
2888;SDS011;1453;42.708;23.282;2024-03-08T10:20:24;5.73;;;5.23;;
2888;SDS011;1453;42.708;23.282;2024-03-08T10:22:51;5.80;;;5.40;;
2888;SDS011;1453;42.708;23.282;2024-03-08T10:25:18;5.90;;;5.40;;
2888;SDS011;1453;42.708;23.282;2024-03-08T10:27:45;6.83;;;6.33;;
2888;SDS011;1453;42.708;23.282;2024-03-08T10:30:15;9.53;;;5.77;;
2888;SDS011;1453;42.708;23.282;2024-03-08T10:32:45;5.67;;;5.27;;
2888;SDS011;1453;42.708;23.282;2024-03-08T10:35:11;7.33;;;6.60;;
2888;SDS011;1453;42.708;23.282;2024-03-08T10:37:47;6.27;;;5.87;;
2888;SDS011;1453;42.708;23.282;2024-03-08T10:40:24;4.90;;;4.60;;
2888;SDS011;1453;42.708;23.282;2024-03-08T10:42:55;5.17;;;4.87;;
2888;SDS011;1453;42.708;23.282;2024-03-08T10:51:00;5.20;;;4.90;;
2888;SDS011;1453;42.708;23.282;2024-03-08T10:53:28;5.30;;;4.90;;
2888;SDS011;1453;42.708;23.282;2024-03-08T10:55:58;5.83;;;5.43;;
2888;SDS011;1453;42.708;23.282;2024-03-08T10:58:24;5.77;;;5.27;;
2888;SDS011;1453;42.708;23.282;2024-03-08T11:00:54;4.90;;;4.57;;
2888;SDS011;1453;42.708;23.282;2024-03-08T11:06:51;5.73;;;5.23;;
2888;SDS011;1453;42.708;23.282;2024-03-08T11:12:22;5.30;;;4.90;;
2888;SDS011;1453;42.708;23.282;2024-03-08T11:15:00;6.10;;;5.60;;
2888;SDS011;1453;42.708;23.282;2024-03-08T11:19:57;5.50;;;5.10;;
2888;SDS011;1453;42.708;23.282;2024-03-08T11:22:31;6.13;;;5.30;;
2888;SDS011;1453;42.708;23.282;2024-03-08T11:25:01;5.00;;;4.60;;
2888;SDS011;1453;42.708;23.282;2024-03-08T11:27:33;7.00;;;6.07;;
2888;SDS011;1453;42.708;23.282;2024-03-08T11:30:04;6.00;;;5.40;;
2888;SDS011;1453;42.708;23.282;2024-03-08T11:32:36;8.30;;;5.70;;
2888;SDS011;1453;42.708;23.282;2024-03-08T11:35:18;5.73;;;5.23;;
2888;SDS011;1453;42.708;23.282;2024-03-08T11:37:47;6.03;;;5.43;;
2888;SDS011;1453;42.708;23.282;2024-03-08T11:40:14;5.13;;;4.80;;
2888;SDS011;1453;42.708;23.282;2024-03-08T11:42:44;5.13;;;4.73;;
2888;SDS011;1453;42.708;23.282;2024-03-08T11:45:17;5.50;;;5.10;;
2888;SDS011;1453;42.708;23.282;2024-03-08T11:47:46;4.90;;;4.60;;
2888;SDS011;1453;42.708;23.282;2024-03-08T11:50:12;6.43;;;5.73;;
2888;SDS011;1453;42.708;23.282;2024-03-08T11:52:39;6.97;;;6.47;;
2888;SDS011;1453;42.708;23.282;2024-03-08T11:55:07;6.00;;;5.40;;
2888;SDS011;1453;42.708;23.282;2024-03-08T11:57:34;5.40;;;5.00;;
2888;SDS011;1453;42.708;23.282;2024-03-08T12:00:01;8.00;;;7.33;;
2888;SDS011;1453;42.708;23.282;2024-03-08T12:02:32;5.63;;;5.30;;
2888;SDS011;1453;42.708;23.282;2024-03-08T12:05:03;6.17;;;5.77;;
2888;SDS011;1453;42.708;23.282;2024-03-08T12:07:35;5.83;;;5.43;;
2888;SDS011;1453;42.708;23.282;2024-03-08T12:10:14;6.53;;;5.93;;
2888;SDS011;1453;42.708;23.282;2024-03-08T12:12:46;5.53;;;5.23;;
2888;SDS011;1453;42.708;23.282;2024-03-08T12:15:16;5.03;;;4.73;;
2888;SDS011;1453;42.708;23.282;2024-03-08T12:17:43;6.00;;;5.40;;
2888;SDS011;1453;42.708;23.282;2024-03-08T12:20:15;5.50;;;5.10;;
2888;SDS011;1453;42.708;23.282;2024-03-08T12:22:48;5.43;;;5.03;;
2888;SDS011;1453;42.708;23.282;2024-03-08T12:25:18;6.70;;;4.97;;
2888;SDS011;1453;42.708;23.282;2024-03-08T12:27:45;5.30;;;5.00;;
2888;SDS011;1453;42.708;23.282;2024-03-08T12:30:30;9.67;;;5.97;;
2888;SDS011;1453;42.708;23.282;2024-03-08T12:32:59;6.97;;;6.37;;
2888;SDS011;1453;42.708;23.282;2024-03-08T12:35:29;5.80;;;5.40;;
2888;SDS011;1453;42.708;23.282;2024-03-08T12:37:58;7.03;;;5.67;;
2888;SDS011;1453;42.708;23.282;2024-03-08T12:40:34;5.50;;;5.20;;
2888;SDS011;1453;42.708;23.282;2024-03-08T12:43:05;6.97;;;6.47;;
2888;SDS011;1453;42.708;23.282;2024-03-08T12:45:31;5.77;;;5.43;;
2888;SDS011;1453;42.708;23.282;2024-03-08T12:47:57;6.10;;;5.70;;
2888;SDS011;1453;42.708;23.282;2024-03-08T12:50:24;6.70;;;6.20;;
2888;SDS011;1453;42.708;23.282;2024-03-08T12:52:51;6.27;;;5.87;;
2888;SDS011;1453;42.708;23.282;2024-03-08T12:55:20;6.00;;;5.50;;
2888;SDS011;1453;42.708;23.282;2024-03-08T12:57:46;6.47;;;5.83;;
2888;SDS011;1453;42.708;23.282;2024-03-08T13:00:14;6.50;;;6.10;;
2888;SDS011;1453;42.708;23.282;2024-03-08T13:02:48;6.30;;;5.80;;
2888;SDS011;1453;42.708;23.282;2024-03-08T13:05:16;6.07;;;5.47;;
2888;SDS011;1453;42.708;23.282;2024-03-08T13:07:42;6.00;;;5.50;;
2888;SDS011;1453;42.708;23.282;2024-03-08T13:10:12;5.50;;;5.20;;
2888;SDS011;1453;42.708;23.282;2024-03-08T13:12:42;5.77;;;5.37;;
2888;SDS011;1453;42.708;23.282;2024-03-08T13:15:08;7.03;;;5.47;;
2888;SDS011;1453;42.708;23.282;2024-03-08T13:17:39;6.23;;;5.77;;
2888;SDS011;1453;42.708;23.282;2024-03-08T13:20:07;6.30;;;5.80;;
2888;SDS011;1453;42.708;23.282;2024-03-08T13:22:34;5.97;;;5.57;;
2888;SDS011;1453;42.708;23.282;2024-03-08T13:25:01;6.30;;;5.90;;
2888;SDS011;1453;42.708;23.282;2024-03-08T13:27:28;7.37;;;6.77;;
2888;SDS011;1453;42.708;23.282;2024-03-08T13:29:54;6.30;;;5.90;;
2888;SDS011;1453;42.708;23.282;2024-03-08T13:32:20;6.73;;;6.33;;
2888;SDS011;1453;42.708;23.282;2024-03-08T13:34:47;7.20;;;6.70;;
2888;SDS011;1453;42.708;23.282;2024-03-08T13:37:13;7.20;;;6.60;;
2888;SDS011;1453;42.708;23.282;2024-03-08T13:39:41;6.03;;;5.63;;
2888;SDS011;1453;42.708;23.282;2024-03-08T13:42:09;5.97;;;5.57;;
2888;SDS011;1453;42.708;23.282;2024-03-08T13:44:43;5.93;;;5.53;;
2888;SDS011;1453;42.708;23.282;2024-03-08T13:47:09;7.00;;;5.10;;
2888;SDS011;1453;42.708;23.282;2024-03-08T13:49:37;8.23;;;5.80;;
2888;SDS011;1453;42.708;23.282;2024-03-08T13:52:03;6.07;;;5.67;;
2888;SDS011;1453;42.708;23.282;2024-03-08T13:54:29;6.30;;;5.90;;
2888;SDS011;1453;42.708;23.282;2024-03-08T13:56:56;5.80;;;5.40;;
2888;SDS011;1453;42.708;23.282;2024-03-08T13:59:23;9.73;;;6.23;;
2888;SDS011;1453;42.708;23.282;2024-03-08T14:01:50;9.17;;;6.37;;
2888;SDS011;1453;42.708;23.282;2024-03-08T14:04:16;8.50;;;6.20;;
2888;SDS011;1453;42.708;23.282;2024-03-08T14:06:45;6.67;;;6.17;;
2888;SDS011;1453;42.708;23.282;2024-03-08T14:09:11;5.20;;;4.90;;
2888;SDS011;1453;42.708;23.282;2024-03-08T14:11:45;7.20;;;6.60;;
2888;SDS011;1453;42.708;23.282;2024-03-08T14:14:11;6.47;;;5.97;;
2888;SDS011;1453;42.708;23.282;2024-03-08T14:16:40;6.67;;;6.20;;
2888;SDS011;1453;42.708;23.282;2024-03-08T14:19:06;5.43;;;5.10;;
2888;SDS011;1453;42.708;23.282;2024-03-08T14:21:35;7.27;;;6.67;;
2888;SDS011;1453;42.708;23.282;2024-03-08T14:24:02;7.40;;;6.80;;
2888;SDS011;1453;42.708;23.282;2024-03-08T14:26:29;7.00;;;6.50;;
2888;SDS011;1453;42.708;23.282;2024-03-08T14:28:55;6.63;;;6.03;;
2888;SDS011;1453;42.708;23.282;2024-03-08T14:31:22;6.67;;;6.07;;
2888;SDS011;1453;42.708;23.282;2024-03-08T14:33:51;6.00;;;5.50;;
2888;SDS011;1453;42.708;23.282;2024-03-08T14:36:18;7.33;;;6.73;;
2888;SDS011;1453;42.708;23.282;2024-03-08T14:38:48;8.27;;;7.57;;
2888;SDS011;1453;42.708;23.282;2024-03-08T14:41:14;6.73;;;6.10;;
2888;SDS011;1453;42.708;23.282;2024-03-08T14:43:43;7.90;;;7.10;;
2888;SDS011;1453;42.708;23.282;2024-03-08T14:46:17;7.63;;;6.93;;
2888;SDS011;1453;42.708;23.282;2024-03-08T14:48:52;6.43;;;5.87;;
2888;SDS011;1453;42.708;23.282;2024-03-08T14:51:18;7.47;;;6.87;;
2888;SDS011;1453;42.708;23.282;2024-03-08T14:53:47;8.30;;;7.50;;
2888;SDS011;1453;42.708;23.282;2024-03-08T14:56:14;7.63;;;6.90;;
2888;SDS011;1453;42.708;23.282;2024-03-08T14:58:44;7.27;;;6.60;;
2888;SDS011;1453;42.708;23.282;2024-03-08T15:01:14;6.83;;;6.23;;
2888;SDS011;1453;42.708;23.282;2024-03-08T15:03:43;6.87;;;6.27;;
2888;SDS011;1453;42.708;23.282;2024-03-08T15:06:11;7.80;;;5.90;;
2888;SDS011;1453;42.708;23.282;2024-03-08T15:08:37;5.87;;;5.27;;
2888;SDS011;1453;42.708;23.282;2024-03-08T15:11:07;5.90;;;5.40;;
2888;SDS011;1453;42.708;23.282;2024-03-08T15:13:33;5.80;;;5.40;;
2888;SDS011;1453;42.708;23.282;2024-03-08T15:16:10;7.00;;;6.40;;
2888;SDS011;1453;42.708;23.282;2024-03-08T15:18:42;7.83;;;5.33;;
2888;SDS011;1453;42.708;23.282;2024-03-08T15:21:12;6.43;;;5.80;;
2888;SDS011;1453;42.708;23.282;2024-03-08T15:23:44;7.35;;;6.65;;